createdAt,value
2016-09-01T00:00:24.840Z,90.25
2016-09-01T00:01:27.869Z,89.58
2016-09-01T00:02:25.456Z,89.62
2016-09-01T00:03:24.744Z,89.91
2016-09-01T00:04:24.348Z,89.05
2016-09-01T00:05:25.395Z,88.86
2016-09-01T00:06:25.042Z,88.48
2016-09-01T00:07:24.791Z,89.05
2016-09-01T00:08:25.702Z,88.67
2016-09-01T00:09:25.187Z,88.67
2016-09-01T00:10:25.041Z,89.34
2016-09-01T00:11:26.360Z,90.01
2016-09-01T00:12:24.864Z,91.59
2016-09-01T00:13:25.863Z,91.59
2016-09-01T00:14:25.574Z,91.2
2016-09-01T00:15:25.361Z,89.96
2016-09-01T00:16:25.159Z,89.58
2016-09-01T00:17:26.224Z,89.87
2016-09-01T00:18:25.236Z,89.77
2016-09-01T00:19:26.284Z,89.67
2016-09-01T00:20:25.560Z,89.48
2016-09-01T00:21:25.597Z,88.81
2016-09-01T00:22:26.144Z,89.87
2016-09-01T00:23:25.367Z,90.06
2016-09-01T00:24:25.489Z,90.82
2016-09-01T00:25:25.340Z,90.34
2016-09-01T00:26:25.035Z,90.16
2016-09-01T00:27:26.670Z,90.06
2016-09-01T00:28:25.923Z,89.67
2016-09-01T00:29:25.505Z,89.87
2016-09-01T00:30:26.071Z,89.87
2016-09-01T00:31:25.699Z,89.77
2016-09-01T00:32:26.076Z,90.16
2016-09-01T00:33:26.510Z,90.06
2016-09-01T00:34:25.865Z,90.53
2016-09-01T00:35:26.417Z,90.06
2016-09-01T00:36:25.903Z,90.06
2016-09-01T00:37:27.275Z,89.77
2016-09-01T00:38:25.388Z,89.48
2016-09-01T00:39:25.494Z,89.01
2016-09-01T00:40:25.994Z,89.43
2016-09-01T00:41:25.757Z,88.95
2016-09-01T00:42:26.105Z,88.53
2016-09-01T00:43:25.788Z,88.67
2016-09-01T00:44:26.016Z,88.76
2016-09-01T00:45:26.967Z,89.34
2016-09-01T00:46:26.937Z,88.91
2016-09-01T00:47:26.879Z,89.01
2016-09-01T00:48:25.942Z,89.48
2016-09-01T00:49:25.796Z,89.48
2016-09-01T00:50:26.864Z,89.48
2016-09-01T00:51:25.923Z,89.67
2016-09-01T00:52:27.255Z,89.87
2016-09-01T00:53:25.970Z,89.1
2016-09-01T00:54:26.849Z,89.29
2016-09-01T00:55:26.451Z,88.91
2016-09-01T00:56:26.209Z,89.2
2016-09-01T00:57:27.280Z,89.29
2016-09-01T00:58:26.969Z,89.67
2016-09-01T00:59:26.228Z,90.73
2016-09-01T01:00:26.299Z,91.06
2016-09-01T01:01:25.804Z,90.59
2016-09-01T01:02:27.636Z,90.39
2016-09-01T01:03:26.307Z,90.78
2016-09-01T01:04:26.037Z,90.53
2016-09-01T01:05:25.896Z,89.96
2016-09-01T01:06:26.626Z,89.39
2016-09-01T01:07:26.831Z,89.87
2016-09-01T01:08:26.549Z,90.44
2016-09-01T01:09:27.314Z,91.83
2016-09-01T01:10:27.094Z,91.54
2016-09-01T01:11:26.370Z,92.4
2016-09-01T01:12:25.999Z,92.3
2016-09-01T01:13:28.439Z,92.36
2016-09-01T01:14:27.275Z,92.26
2016-09-01T01:15:27.241Z,91.35
2016-09-01T01:16:27.659Z,90.97
2016-09-01T01:17:26.979Z,90.49
2016-09-01T01:18:27.479Z,91.25
2016-09-01T01:19:26.106Z,90.78
2016-09-01T01:20:26.888Z,90.78
2016-09-01T01:21:27.188Z,90.68
2016-09-01T01:22:28.204Z,89.82
2016-09-01T01:23:27.028Z,90.06
2016-09-01T01:24:26.982Z,89.58
2016-09-01T01:25:27.917Z,90.25
2016-09-01T01:26:27.490Z,90.06
2016-09-01T01:27:26.704Z,90.25
2016-09-01T01:28:27.094Z,90.06
2016-09-01T01:29:27.086Z,90.16
2016-09-01T01:30:26.421Z,89.77
2016-09-01T01:31:27.290Z,90.44
2016-09-01T01:32:27.519Z,90.34
2016-09-01T01:33:28.050Z,89.77
2016-09-01T01:34:26.802Z,90.53
2016-09-01T01:35:27.780Z,89.92
2016-09-01T01:36:26.984Z,90.01
2016-09-01T01:37:28.093Z,90.01
2016-09-01T01:38:26.836Z,90.68
2016-09-01T01:39:28.236Z,91.35
2016-09-01T01:40:26.942Z,90.88
2016-09-01T01:41:26.779Z,90.88
2016-09-01T01:42:27.001Z,90.49
2016-09-01T01:43:27.211Z,90.88
2016-09-01T01:44:27.753Z,90.68
2016-09-01T01:45:27.311Z,90.68
2016-09-01T01:46:27.683Z,91.16
2016-09-01T01:47:27.695Z,90.59
2016-09-01T01:48:27.190Z,91.16
2016-09-01T01:49:27.106Z,91.74
2016-09-01T01:50:27.437Z,91.93
2016-09-01T01:51:27.353Z,91.78
2016-09-01T01:52:29.084Z,91.97
2016-09-01T01:53:26.776Z,91.88
2016-09-01T01:54:27.186Z,91.69
2016-09-01T01:55:27.842Z,92.07
2016-09-01T01:56:29.575Z,91.4
2016-09-01T01:57:27.393Z,91.59
2016-09-01T01:58:27.310Z,92.36
2016-09-01T01:59:28.211Z,92.55
2016-09-01T02:00:27.418Z,92.16
2016-09-01T02:01:27.502Z,93.21
2016-09-01T02:02:27.770Z,93.31
2016-09-01T02:03:27.420Z,92.36
2016-09-01T02:04:28.152Z,91.5
2016-09-01T02:05:27.719Z,92.07
2016-09-01T02:06:27.325Z,91.21
2016-09-01T02:07:28.430Z,91.5
2016-09-01T02:08:27.909Z,91.5
2016-09-01T02:09:27.652Z,91.5
2016-09-01T02:10:27.785Z,91.59
2016-09-01T02:11:27.612Z,91.3
2016-09-01T02:12:28.094Z,90.92
2016-09-01T02:13:28.640Z,91.69
2016-09-01T02:14:27.425Z,91.59
2016-09-01T02:15:30.188Z,91.21
2016-09-01T02:16:27.790Z,91.5
2016-09-01T02:17:29.576Z,90.73
2016-09-01T02:18:27.999Z,91.21
2016-09-01T02:19:28.562Z,91.21
2016-09-01T02:20:28.376Z,90.73
2016-09-01T02:21:29.506Z,90.92
2016-09-01T02:22:28.298Z,91.5
2016-09-01T02:23:27.684Z,91.4
2016-09-01T02:24:28.674Z,90.54
2016-09-01T02:25:28.522Z,91.3
2016-09-01T02:26:28.110Z,91.02
2016-09-01T02:27:28.286Z,91.69
2016-09-01T02:28:28.043Z,91.4
2016-09-01T02:29:28.005Z,91.3
2016-09-01T02:30:29.556Z,90.83
2016-09-01T02:31:27.892Z,91.5
2016-09-01T02:32:29.367Z,90.73
2016-09-01T02:33:28.390Z,90.83
2016-09-01T02:34:29.361Z,91.02
2016-09-01T02:35:28.456Z,90.83
2016-09-01T02:36:28.568Z,90.92
2016-09-01T02:37:28.427Z,90.83
2016-09-01T02:38:28.723Z,91.5
2016-09-01T02:39:28.063Z,91.59
2016-09-01T02:40:30.418Z,91.3
2016-09-01T02:41:28.293Z,91.3
2016-09-01T02:42:29.530Z,91.21
2016-09-01T02:43:29.149Z,91.5
2016-09-01T02:44:28.669Z,91.26
2016-09-01T02:45:29.368Z,91.74
2016-09-01T02:46:28.452Z,91.55
2016-09-01T02:47:28.730Z,91.55
2016-09-01T02:48:28.597Z,91.64
2016-09-01T02:49:28.095Z,91.93
2016-09-01T02:50:28.359Z,91.83
2016-09-01T02:51:28.547Z,91.83
2016-09-01T02:52:29.251Z,91.64
2016-09-01T02:53:29.188Z,91.36
2016-09-01T02:54:28.473Z,91.11
2016-09-01T02:55:28.784Z,91.21
2016-09-01T02:56:28.465Z,90.54
2016-09-01T02:57:29.436Z,91.3
2016-09-01T02:58:28.661Z,91.3
2016-09-01T02:59:29.588Z,91.3
2016-09-01T03:00:29.531Z,91.11
2016-09-01T03:01:29.007Z,90.45
2016-09-01T03:02:29.127Z,91.02
2016-09-01T03:03:29.152Z,91.5
2016-09-01T03:04:29.222Z,91.5
2016-09-01T03:05:29.754Z,91.93
2016-09-01T03:06:29.576Z,92.41
2016-09-01T03:07:29.533Z,92.41
2016-09-01T03:08:29.749Z,92.69
2016-09-01T03:09:28.513Z,92.88
2016-09-01T03:10:29.613Z,93.36
2016-09-01T03:11:28.662Z,92.79
2016-09-01T03:12:28.624Z,91.78
2016-09-01T03:13:29.632Z,92.26
2016-09-01T03:14:29.467Z,92.36
2016-09-01T03:15:29.756Z,92.36
2016-09-01T03:16:29.253Z,91.78
2016-09-01T03:17:29.944Z,91.5
2016-09-01T03:18:30.342Z,91.4
2016-09-01T03:19:29.889Z,90.49
2016-09-01T03:20:29.567Z,90.97
2016-09-01T03:21:30.364Z,90.97
2016-09-01T03:22:29.970Z,91.35
2016-09-01T03:23:29.674Z,91.93
2016-09-01T03:24:29.613Z,91.45
2016-09-01T03:25:29.499Z,91.45
2016-09-01T03:26:29.889Z,91.25
2016-09-01T03:27:29.746Z,91.54
2016-09-01T03:28:30.227Z,92.4
2016-09-01T03:29:29.693Z,91.93
2016-09-01T03:30:29.943Z,92.21
2016-09-01T03:31:30.269Z,91.83
2016-09-01T03:32:29.462Z,91.93
2016-09-01T03:33:29.261Z,92.5
2016-09-01T03:34:30.335Z,92.69
2016-09-01T03:35:30.418Z,93.07
2016-09-01T03:36:30.130Z,92.21
2016-09-01T03:37:30.801Z,92.59
2016-09-01T03:38:29.499Z,92.79
2016-09-01T03:39:30.206Z,92.3
2016-09-01T03:40:30.453Z,92.3
2016-09-01T03:41:30.699Z,92.4
2016-09-01T03:42:30.514Z,91.83
2016-09-01T03:43:30.755Z,92.3
2016-09-01T03:44:29.894Z,91.93
2016-09-01T03:45:30.351Z,93.16
2016-09-01T03:46:31.244Z,93.12
2016-09-01T03:47:29.670Z,92.93
2016-09-01T03:48:31.269Z,92.64
2016-09-01T03:49:30.025Z,92.5
2016-09-01T03:50:30.104Z,92.02
2016-09-01T03:51:30.606Z,91.35
2016-09-01T03:52:30.924Z,92.5
2016-09-01T03:53:30.390Z,92.4
2016-09-01T03:54:30.266Z,92.59
2016-09-01T03:55:31.363Z,92.74
2016-09-01T03:56:30.376Z,93.12
2016-09-01T03:57:30.773Z,93.12
2016-09-01T03:58:30.433Z,93.41
2016-09-01T03:59:30.040Z,92.93
2016-09-01T04:00:30.139Z,93.5
2016-09-01T04:01:30.953Z,94.7
2016-09-01T04:02:30.826Z,95.94
2016-09-01T04:03:30.549Z,96.13
2016-09-01T04:04:29.883Z,96.51
2016-09-01T04:05:31.093Z,95.94
2016-09-01T04:06:31.782Z,95.84
2016-09-01T04:07:30.111Z,95.94
2016-09-01T04:08:30.097Z,96.22
2016-09-01T04:09:30.565Z,95.75
2016-09-01T04:10:32.459Z,95.65
2016-09-01T04:11:30.700Z,94.89
2016-09-01T04:12:30.680Z,94.12
2016-09-01T04:13:31.016Z,93.65
2016-09-01T04:14:31.342Z,93.36
2016-09-01T04:15:30.151Z,93.17
2016-09-01T04:16:31.174Z,92.97
2016-09-01T04:17:30.145Z,93.26
2016-09-01T04:18:31.913Z,93.26
2016-09-01T04:19:31.944Z,92.79
2016-09-01T04:20:31.921Z,93.36
2016-09-01T04:21:30.862Z,93.74
2016-09-01T04:22:30.721Z,93.74
2016-09-01T04:23:31.849Z,93.36
2016-09-01T04:24:30.386Z,93.07
2016-09-01T04:25:30.555Z,92.69
2016-09-01T04:26:30.833Z,92.64
2016-09-01T04:27:31.741Z,92.79
2016-09-01T04:28:30.634Z,91.93
2016-09-01T04:29:31.509Z,92.6
2016-09-01T04:30:31.188Z,92.88
2016-09-01T04:31:30.438Z,92.79
2016-09-01T04:32:32.131Z,92.6
2016-09-01T04:33:30.995Z,92.88
2016-09-01T04:34:30.665Z,93.46
2016-09-01T04:35:31.955Z,93.17
2016-09-01T04:36:31.138Z,94.03
2016-09-01T04:37:31.935Z,93.26
2016-09-01T04:38:31.383Z,93.17
2016-09-01T04:39:30.787Z,93.55
2016-09-01T04:40:31.102Z,93.93
2016-09-01T04:41:31.399Z,94.6
2016-09-01T04:42:31.881Z,94.98
2016-09-01T04:43:33.149Z,93.84
2016-09-01T04:44:31.195Z,93.17
2016-09-01T04:45:32.406Z,93.26
2016-09-01T04:46:31.533Z,92.88
2016-09-01T04:47:31.027Z,93.36
2016-09-01T04:48:30.998Z,93.07
2016-09-01T04:49:31.032Z,92.97
2016-09-01T04:50:31.795Z,92.97
2016-09-01T04:51:31.116Z,93.17
2016-09-01T04:52:30.990Z,92.97
2016-09-01T04:53:31.771Z,93.26
2016-09-01T04:54:31.270Z,93.26
2016-09-01T04:55:31.544Z,92.6
2016-09-01T04:56:31.798Z,92.97
2016-09-01T04:57:32.461Z,92.69
2016-09-01T04:58:31.266Z,93.17
2016-09-01T04:59:32.418Z,92.88
2016-09-01T05:00:31.616Z,93.74
2016-09-01T05:01:34.490Z,93.26
2016-09-01T05:02:32.329Z,93.46
2016-09-01T05:03:31.909Z,93.07
2016-09-01T05:04:32.260Z,92.97
2016-09-01T05:05:33.374Z,93.26
2016-09-01T05:06:32.865Z,93.84
2016-09-01T05:07:31.923Z,93.26
2016-09-01T05:08:33.313Z,92.5
2016-09-01T05:09:32.663Z,93.46
2016-09-01T05:10:32.101Z,92.69
2016-09-01T05:11:31.579Z,92.69
2016-09-01T05:12:32.310Z,93.02
2016-09-01T05:13:32.868Z,92.79
2016-09-01T05:14:32.352Z,92.88
2016-09-01T05:15:32.974Z,93.55
2016-09-01T05:16:32.066Z,93.07
2016-09-01T05:17:32.653Z,93.55
2016-09-01T05:18:32.782Z,93.55
2016-09-01T05:19:32.517Z,93.74
2016-09-01T05:20:33.714Z,92.31
2016-09-01T05:21:32.105Z,93.36
2016-09-01T05:22:34.177Z,93.12
2016-09-01T05:23:32.779Z,93.88
2016-09-01T05:24:32.692Z,94.6
2016-09-01T05:25:32.758Z,94.79
2016-09-01T05:26:31.889Z,95.36
2016-09-01T05:27:32.849Z,94.41
2016-09-01T05:28:33.719Z,94.31
2016-09-01T05:29:32.709Z,94.79
2016-09-01T05:30:32.451Z,95.27
2016-09-01T05:31:31.979Z,94.41
2016-09-01T05:32:33.167Z,94.51
2016-09-01T05:33:32.968Z,93.93
2016-09-01T05:34:32.102Z,94.36
2016-09-01T05:35:32.450Z,94.7
2016-09-01T05:36:33.226Z,95.17
2016-09-01T05:37:32.588Z,95.27
2016-09-01T05:38:32.390Z,94.98
2016-09-01T05:39:33.222Z,95.94
2016-09-01T05:40:32.686Z,95.84
2016-09-01T05:41:34.442Z,95.27
2016-09-01T05:42:33.209Z,95.08
2016-09-01T05:43:33.342Z,94.51
2016-09-01T05:44:33.190Z,94.27
2016-09-01T05:45:32.826Z,94.07
2016-09-01T05:46:34.066Z,93.79
2016-09-01T05:47:32.675Z,93.98
2016-09-01T05:48:33.108Z,93.98
2016-09-01T05:49:32.658Z,94.17
2016-09-01T05:50:32.505Z,93.79
2016-09-01T05:51:33.961Z,93.12
2016-09-01T05:52:33.641Z,93.74
2016-09-01T05:53:33.139Z,93.26
2016-09-01T05:54:33.021Z,93.79
2016-09-01T05:55:33.244Z,94.36
2016-09-01T05:56:34.042Z,95.12
2016-09-01T05:57:33.066Z,95.12
2016-09-01T05:58:33.622Z,94.74
2016-09-01T05:59:33.602Z,94.27
2016-09-01T06:00:33.946Z,94.07
2016-09-01T06:01:33.147Z,93.88
2016-09-01T06:02:33.839Z,94.6
2016-09-01T06:03:33.274Z,94.55
2016-09-01T06:04:34.137Z,94.41
2016-09-01T06:05:34.124Z,94.12
2016-09-01T06:06:34.681Z,94.41
2016-09-01T06:07:34.014Z,94.41
2016-09-01T06:08:33.752Z,94.31
2016-09-01T06:09:33.778Z,94.41
2016-09-01T06:10:33.948Z,94.31
2016-09-01T06:11:34.834Z,94.6
2016-09-01T06:12:34.495Z,94.6
2016-09-01T06:13:34.240Z,93.84
2016-09-01T06:14:33.237Z,94.51
2016-09-01T06:15:35.789Z,93.55
2016-09-01T06:16:34.132Z,93.4
2016-09-01T06:17:33.934Z,93.21
2016-09-01T06:18:34.444Z,93.4
2016-09-01T06:19:34.821Z,93.21
2016-09-01T06:20:33.612Z,93.31
2016-09-01T06:21:35.613Z,93.21
2016-09-01T06:22:34.219Z,93.4
2016-09-01T06:23:33.336Z,93.4
2016-09-01T06:24:35.266Z,93.5
2016-09-01T06:25:34.298Z,93.21
2016-09-01T06:26:35.811Z,92.83
2016-09-01T06:27:34.207Z,91.39
2016-09-01T06:28:33.887Z,91.53
2016-09-01T06:29:34.318Z,90.58
2016-09-01T06:30:35.027Z,90.39
2016-09-01T06:31:34.251Z,90.48
2016-09-01T06:32:33.898Z,90.39
2016-09-01T06:33:33.497Z,90.15
2016-09-01T06:34:34.625Z,91.11
2016-09-01T06:35:33.974Z,90.39
2016-09-01T06:36:35.066Z,90.24
2016-09-01T06:37:34.954Z,89.95
2016-09-01T06:38:34.178Z,89.95
2016-09-01T06:39:35.015Z,89.95
2016-09-01T06:40:34.739Z,90.34
2016-09-01T06:41:34.870Z,89.29
2016-09-01T06:42:34.601Z,89.76
2016-09-01T06:43:35.130Z,89.95
2016-09-01T06:44:35.562Z,90.91
2016-09-01T06:45:35.792Z,90.05
2016-09-01T06:46:35.153Z,89.95
2016-09-01T06:47:35.035Z,89.19
2016-09-01T06:48:35.362Z,89.04
2016-09-01T06:49:35.028Z,89.52
2016-09-01T06:50:34.569Z,88.66
2016-09-01T06:51:34.864Z,87.8
2016-09-01T06:52:35.463Z,86.88
2016-09-01T06:53:35.226Z,86.6
2016-09-01T06:54:36.070Z,85.54
2016-09-01T06:55:34.111Z,84.82
2016-09-01T06:56:35.567Z,85.21
2016-09-01T06:57:34.637Z,84.95
2016-09-01T06:58:35.392Z,85.39
2016-09-01T06:59:34.596Z,84.05
2016-09-01T07:00:35.096Z,82.56
2016-09-01T07:01:34.581Z,82.46
2016-09-01T07:02:34.599Z,82.98
2016-09-01T07:03:35.876Z,81.64
2016-09-01T07:04:35.604Z,82.12
2016-09-01T07:05:35.103Z,82.31
2016-09-01T07:06:34.686Z,81.64
2016-09-01T07:07:34.484Z,81.74
2016-09-01T07:08:34.241Z,82.21
2016-09-01T07:09:35.779Z,82.41
2016-09-01T07:10:34.725Z,81.35
2016-09-01T07:11:36.770Z,81.54
2016-09-01T07:12:34.527Z,81.45
2016-09-01T07:13:35.279Z,80.53
2016-09-01T07:14:34.963Z,80.63
2016-09-01T07:15:34.422Z,78.61
2016-09-01T07:16:35.889Z,78.8
2016-09-01T07:17:34.824Z,78.52
2016-09-01T07:18:34.674Z,78.75
2016-09-01T07:19:35.448Z,78.36
2016-09-01T07:20:36.036Z,79.42
2016-09-01T07:21:35.396Z,78.5
2016-09-01T07:22:35.472Z,77.88
2016-09-01T07:23:35.520Z,78.3
2016-09-01T07:24:34.912Z,77.01
2016-09-01T07:25:35.670Z,78.3
2016-09-01T07:26:34.727Z,79.13
2016-09-01T07:27:34.420Z,76.67
2016-09-01T07:28:35.607Z,76.57
2016-09-01T07:29:35.768Z,76.19
2016-09-01T07:30:35.053Z,74.5
2016-09-01T07:31:35.074Z,73.54
2016-09-01T07:32:34.854Z,75.17
2016-09-01T07:33:35.909Z,74.21
2016-09-01T07:34:35.498Z,75.27
2016-09-01T07:35:35.340Z,73.83
2016-09-01T07:36:36.199Z,73.88
2016-09-01T07:37:35.662Z,73.83
2016-09-01T07:38:37.458Z,74.11
2016-09-01T07:39:35.200Z,74.21
2016-09-01T07:40:35.980Z,73.09
2016-09-01T07:41:36.091Z,73.32
2016-09-01T07:42:37.195Z,72.8
2016-09-01T07:43:35.511Z,72.55
2016-09-01T07:44:35.115Z,70.72
2016-09-01T07:45:35.283Z,70.05
2016-09-01T07:46:35.179Z,70.82
2016-09-01T07:47:35.735Z,70.92
2016-09-01T07:48:35.436Z,70.43
2016-09-01T07:49:35.914Z,68.1
2016-09-01T07:50:37.473Z,67.71
2016-09-01T07:51:36.931Z,66.94
2016-09-01T07:52:35.666Z,66.39
2016-09-01T07:53:37.288Z,65.85
